Time;durP1;ratioP1;P1;durP2;ratioP2;P2;SDS_P1;SDS_P2;PMS_P1;PMS_P2;Temp;Humidity;BMP_temperature;BMP_pressure;BME280_temperature;BME280_humidity;BME280_pressure;Samples;Min_cycle;Max_cycle;Signal;HPM_P1;HPM_P2
2023/08/31 00:01:25;;;;;;;10.48;4.38;;;;;;;13.51;100.00;100353.69;6303753;28;20044;-66
2023/08/31 00:04:27;;;;;;;7.45;4.35;;;;;;;13.58;100.00;100353.13;6303766;28;20049;-67
2023/08/31 00:07:28;;;;;;;8.73;4.38;;;;;;;13.50;100.00;100354.63;6303412;28;20048;-67
2023/08/31 00:10:30;;;;;;;10.20;4.80;;;;;;;13.36;100.00;100356.47;6303473;28;20049;-66
2023/08/31 00:13:31;;;;;;;8.43;4.57;;;;;;;13.30;100.00;100371.88;6302031;28;20045;-67
2023/08/31 00:16:34;;;;;;;8.70;4.25;;;;;;;13.24;100.00;100357.31;6302837;28;20045;-67
2023/08/31 00:19:36;;;;;;;10.27;4.70;;;;;;;13.32;100.00;100352.34;6303514;28;20059;-67
2023/08/31 00:22:37;;;;;;;6.47;3.58;;;;;;;13.17;100.00;100348.09;6303222;28;20440;-65
2023/08/31 00:25:39;;;;;;;10.65;4.32;;;;;;;13.09;100.00;100338.13;6303003;28;20138;-67
2023/08/31 00:28:42;;;;;;;7.60;4.45;;;;;;;12.97;100.00;100344.25;6303044;28;20052;-67
2023/08/31 00:31:45;;;;;;;8.38;4.07;;;;;;;13.06;100.00;100346.25;6302870;28;20428;-67
2023/08/31 00:34:46;;;;;;;9.63;4.38;;;;;;;12.99;100.00;100350.28;6302780;28;20436;-66
2023/08/31 00:37:51;;;;;;;10.50;4.60;;;;;;;13.06;100.00;100342.75;6300506;28;20052;-67
2023/08/31 00:40:52;;;;;;;7.13;4.32;;;;;;;13.10;100.00;100336.31;6302077;28;20049;-66
2023/08/31 00:43:53;;;;;;;9.35;4.03;;;;;;;13.01;100.00;100343.09;6302533;28;20044;-66
2023/08/31 00:46:56;;;;;;;5.40;3.40;;;;;;;13.06;100.00;100346.25;6302476;28;20044;-67
2023/08/31 00:49:58;;;;;;;7.97;3.75;;;;;;;13.09;100.00;100350.47;6302489;28;20044;-67
2023/08/31 00:53:00;;;;;;;7.05;3.42;;;;;;;13.07;100.00;100341.78;6302249;28;20040;-67
2023/08/31 00:56:02;;;;;;;9.23;3.65;;;;;;;13.04;100.00;100352.59;6301963;28;20048;-66
2023/08/31 00:59:13;;;;;;;;;;;;;;;;;;;;;
2023/08/31 01:02:23;;;;;;;6.97;3.80;;;;;;;13.04;100.00;100345.50;6323839;28;20052;-68
2023/08/31 01:05:34;;;;;;;8.85;3.85;;;;;;;13.01;100.00;100352.78;6327002;28;20436;-68
2023/08/31 01:08:48;;;;;;;6.15;3.63;;;;;;;12.85;100.00;100355.63;6327349;28;20048;-67
2023/08/31 01:11:58;;;;;;;6.68;3.90;;;;;;;12.77;100.00;100355.34;6326986;28;20451;-68
2023/08/31 01:15:07;;;;;;;7.43;3.28;;;;;;;12.75;100.00;100354.59;6326707;28;20056;-68
2023/08/31 01:18:12;;;;;;;9.00;3.93;;;;;;;12.80;100.00;100353.31;6315283;28;20131;-68
2023/08/31 01:21:25;;;;;;;6.15;3.83;;;;;;;12.70;100.00;100357.53;6326915;28;20052;-68
2023/08/31 01:24:27;;;;;;;10.35;4.07;;;;;;;12.68;100.00;100362.09;6323019;28;20063;-68
2023/08/31 01:27:29;;;;;;;9.75;4.13;;;;;;;12.44;100.00;100357.53;6326925;28;20048;-68
2023/08/31 01:30:32;;;;;;;9.70;3.97;;;;;;;12.41;100.00;100363.00;6326556;28;20040;-67
2023/08/31 01:33:33;;;;;;;6.60;3.72;;;;;;;12.37;100.00;100365.94;6326798;28;20048;-69
2023/08/31 01:36:39;;;;;;;15.07;4.88;;;;;;;12.36;100.00;100359.84;6326554;28;20091;-70
2023/08/31 01:39:48;;;;;;;7.43;3.95;;;;;;;12.28;100.00;100362.13;6326551;28;20052;-69
2023/08/31 01:42:51;;;;;;;9.30;3.53;;;;;;;12.31;100.00;100369.84;6324924;28;20043;-70
2023/08/31 01:45:53;;;;;;;8.05;4.32;;;;;;;12.11;100.00;100360.59;6313216;28;20047;-70
2023/08/31 01:48:54;;;;;;;6.93;3.65;;;;;;;12.15;100.00;100367.38;6312940;28;20458;-70
2023/08/31 01:51:55;;;;;;;8.65;3.83;;;;;;;12.14;100.00;100364.84;6313659;28;20040;-70
2023/08/31 01:54:58;;;;;;;8.88;3.63;;;;;;;12.20;100.00;100367.06;6312203;28;20051;-70
2023/08/31 01:58:00;;;;;;;7.78;3.95;;;;;;;12.10;100.00;100368.63;6314227;28;20045;-70
2023/08/31 02:01:02;;;;;;;10.77;4.30;;;;;;;12.21;100.00;100371.38;6314155;28;20051;-70
2023/08/31 02:04:04;;;;;;;11.32;4.00;;;;;;;12.28;100.00;100375.31;6311961;28;20051;-71
2023/08/31 02:07:05;;;;;;;8.15;3.60;;;;;;;12.15;100.00;100372.63;6313618;28;20055;-69
2023/08/31 02:10:08;;;;;;;12.07;4.00;;;;;;;12.19;100.00;100378.53;6312123;28;20135;-68
2023/08/31 02:13:10;;;;;;;7.85;3.65;;;;;;;12.21;100.00;100384.53;6311158;28;20044;-67
2023/08/31 02:16:11;;;;;;;8.18;4.28;;;;;;;12.22;100.00;100390.66;6325466;28;20048;-68
2023/08/31 02:19:13;;;;;;;8.02;3.60;;;;;;;12.18;100.00;100380.34;6325645;28;20048;-70
2023/08/31 02:22:14;;;;;;;10.15;3.60;;;;;;;12.23;100.00;100385.31;6325827;28;20048;-68
2023/08/31 02:25:17;;;;;;;8.52;3.30;;;;;;;12.06;100.00;100381.13;6325343;28;20051;-70
2023/08/31 02:28:19;;;;;;;5.03;2.92;;;;;;;12.11;100.00;100381.69;6325735;28;20055;-70
2023/08/31 02:31:20;;;;;;;9.23;3.67;;;;;;;12.16;100.00;100381.38;6325354;28;20051;-69
2023/08/31 02:34:22;;;;;;;10.90;3.63;;;;;;;12.19;100.00;100389.94;6325329;28;20052;-70
2023/08/31 02:37:24;;;;;;;6.93;3.42;;;;;;;12.22;100.00;100383.63;6324781;28;20059;-70
2023/08/31 02:40:26;;;;;;;5.32;3.53;;;;;;;12.09;100.00;100386.22;6325452;28;20048;-70
2023/08/31 02:43:30;;;;;;;6.00;3.95;;;;;;;12.26;100.00;100387.72;6325331;28;20047;-70
2023/08/31 02:46:31;;;;;;;5.50;3.10;;;;;;;12.31;100.00;100395.31;6325281;28;20064;-70
2023/08/31 02:49:32;;;;;;;5.47;3.40;;;;;;;12.35;100.00;100391.53;6325277;28;20055;-69
2023/08/31 02:52:34;;;;;;;6.00;3.17;;;;;;;12.36;100.00;100385.34;6325092;28;20048;-69
2023/08/31 02:55:36;;;;;;;8.90;3.47;;;;;;;12.46;100.00;100383.78;6325179;28;20048;-68
2023/08/31 02:58:38;;;;;;;4.05;2.55;;;;;;;12.35;100.00;100384.50;6324300;28;20054;-70
2023/08/31 03:01:40;;;;;;;4.85;2.92;;;;;;;12.38;100.00;100389.53;6324791;28;20059;-68
2023/08/31 03:04:41;;;;;;;5.57;3.30;;;;;;;12.31;100.00;100384.78;6325052;28;20055;-69
2023/08/31 03:07:43;;;;;;;5.57;3.33;;;;;;;12.29;100.00;100394.59;6324875;28;20436;-68
2023/08/31 03:10:45;;;;;;;6.57;3.28;;;;;;;12.25;100.00;100401.00;6325479;28;20470;-69
2023/08/31 03:13:47;;;;;;;4.18;2.60;;;;;;;12.28;100.00;100406.09;6324772;28;20359;-68
2023/08/31 03:16:48;;;;;;;6.15;2.97;;;;;;;12.34;100.00;100403.03;6324809;28;20055;-68
2023/08/31 03:19:50;;;;;;;7.63;3.00;;;;;;;12.27;100.00;100404.41;6324824;28;20074;-70
2023/08/31 03:22:51;;;;;;;3.92;2.65;;;;;;;12.23;100.00;100403.75;6325154;28;20051;-68
2023/08/31 03:25:54;;;;;;;7.75;3.38;;;;;;;12.26;100.00;100406.16;6324692;28;20052;-68
2023/08/31 03:28:56;;;;;;;5.90;3.38;;;;;;;12.26;100.00;100398.25;6324711;28;20055;-68
2023/08/31 03:31:57;;;;;;;10.90;3.33;;;;;;;12.25;100.00;100399.22;6324024;28;20055;-68
2023/08/31 03:34:58;;;;;;;4.80;3.00;;;;;;;12.21;100.00;100397.72;6324332;28;20051;-70
2023/08/31 03:38:00;;;;;;;10.02;3.72;;;;;;;12.12;100.00;100400.94;6324829;28;20050;-70
2023/08/31 03:41:03;;;;;;;5.78;2.67;;;;;;;12.13;100.00;100403.50;6324383;28;20044;-68
2023/08/31 03:44:05;;;;;;;10.25;3.10;;;;;;;12.07;100.00;100398.63;6324744;28;20040;-70
2023/08/31 03:47:06;;;;;;;5.88;3.20;;;;;;;12.04;100.00;100398.84;6326165;28;20067;-70
2023/08/31 03:50:08;;;;;;;8.55;3.70;;;;;;;12.02;100.00;100405.97;6329405;28;20056;-70
2023/08/31 03:53:10;;;;;;;6.78;3.80;;;;;;;11.94;100.00;100405.63;6328952;28;20094;-70
2023/08/31 03:56:12;;;;;;;7.40;2.97;;;;;;;11.82;100.00;100395.88;6329020;28;20052;-70
2023/08/31 03:59:14;;;;;;;7.57;2.85;;;;;;;11.90;100.00;100397.09;6329057;28;20047;-70
2023/08/31 04:02:15;;;;;;;7.40;3.15;;;;;;;11.92;100.00;100412.78;6328910;28;20440;-70
2023/08/31 04:05:17;;;;;;;7.43;2.88;;;;;;;12.00;100.00;100412.31;6328548;28;20055;-70
2023/08/31 04:08:18;;;;;;;5.47;2.65;;;;;;;12.01;100.00;100414.84;6328731;28;20044;-70
2023/08/31 04:11:21;;;;;;;8.63;2.95;;;;;;;12.04;100.00;100422.53;6328799;28;20052;-70
2023/08/31 04:14:22;;;;;;;9.15;2.50;;;;;;;12.04;100.00;100421.69;6328490;28;20044;-70
2023/08/31 04:17:24;;;;;;;6.68;3.35;;;;;;;11.96;100.00;100421.34;6328642;28;20044;-70
2023/08/31 04:20:25;;;;;;;6.18;3.05;;;;;;;11.95;100.00;100424.94;6328461;28;20059;-70
2023/08/31 04:23:26;;;;;;;7.28;2.55;;;;;;;11.90;100.00;100417.31;6328512;28;20044;-70
2023/08/31 04:26:29;;;;;;;6.38;2.80;;;;;;;11.88;100.00;100424.47;6328117;28;20056;-69
2023/08/31 04:29:31;;;;;;;5.50;2.90;;;;;;;11.89;100.00;100420.88;6328223;28;20348;-68
2023/08/31 04:32:32;;;;;;;5.35;3.03;;;;;;;11.88;100.00;100425.31;6328293;28;20050;-70
2023/08/31 04:35:34;;;;;;;7.43;3.50;;;;;;;11.86;100.00;100423.72;6327888;28;20054;-70
2023/08/31 04:38:35;;;;;;;8.80;3.58;;;;;;;11.87;100.00;100428.03;6328212;28;20048;-70
2023/08/31 04:41:38;;;;;;;5.20;3.03;;;;;;;11.86;100.00;100421.94;6327869;28;20044;-69
2023/08/31 04:44:39;;;;;;;8.27;4.03;;;;;;;11.89;100.00;100426.16;6327751;28;20502;-70
2023/08/31 04:47:41;;;;;;;6.50;3.83;;;;;;;11.87;100.00;100436.78;6327767;28;20047;-69
2023/08/31 04:50:42;;;;;;;15.52;4.47;;;;;;;11.87;100.00;100438.56;6327679;28;20344;-68
2023/08/31 04:53:44;;;;;;;9.77;3.70;;;;;;;11.86;100.00;100440.38;6327399;28;20043;-68
2023/08/31 04:56:46;;;;;;;9.52;4.10;;;;;;;11.88;100.00;100441.09;6327589;28;20444;-70
2023/08/31 04:59:48;;;;;;;15.27;3.85;;;;;;;11.91;100.00;100450.59;6326597;28;20055;-70
2023/08/31 05:02:49;;;;;;;8.70;3.60;;;;;;;11.92;100.00;100450.50;6327779;28;20044;-70
2023/08/31 05:05:51;;;;;;;7.03;3.95;;;;;;;11.90;100.00;100462.09;6327291;28;20051;-70
2023/08/31 05:08:52;;;;;;;7.28;4.63;;;;;;;11.85;100.00;100464.97;6327296;28;20059;-70
2023/08/31 05:11:55;;;;;;;6.50;4.10;;;;;;;11.90;100.00;100460.28;6327321;28;20043;-70
2023/08/31 05:14:56;;;;;;;12.77;5.18;;;;;;;11.95;100.00;100460.00;6326911;28;20605;-70
2023/08/31 05:17:57;;;;;;;10.65;4.47;;;;;;;11.95;100.00;100462.63;6327163;28;20347;-70
2023/08/31 05:20:59;;;;;;;11.85;4.55;;;;;;;11.98;100.00;100465.06;6327202;28;20060;-70
2023/08/31 05:24:00;;;;;;;7.97;4.25;;;;;;;11.94;100.00;100466.19;6326964;28;20128;-70
2023/08/31 05:27:03;;;;;;;10.93;5.43;;;;;;;12.00;100.00;100468.47;6326803;28;20048;-70
2023/08/31 05:30:06;;;;;;;10.73;4.63;;;;;;;12.05;100.00;100479.53;6326985;28;20054;-70
2023/08/31 05:33:07;;;;;;;9.38;4.20;;;;;;;12.11;100.00;100473.88;6326021;28;20047;-70
2023/08/31 05:36:08;;;;;;;12.50;5.30;;;;;;;12.13;100.00;100479.91;6326585;28;20187;-70
2023/08/31 05:39:10;;;;;;;11.27;5.20;;;;;;;12.22;100.00;100472.31;6326514;28;20131;-70
2023/08/31 05:42:13;;;;;;;11.73;5.03;;;;;;;12.27;100.00;100479.00;6326260;28;20044;-70
2023/08/31 05:45:15;;;;;;;10.98;5.30;;;;;;;12.33;100.00;100472.50;6314113;28;20048;-70
2023/08/31 05:48:16;;;;;;;14.35;5.38;;;;;;;12.33;100.00;100475.13;6311910;28;20058;-71
2023/08/31 05:51:17;;;;;;;14.15;4.88;;;;;;;12.38;100.00;100478.31;6326385;28;20054;-70
2023/08/31 05:54:19;;;;;;;11.23;5.05;;;;;;;12.42;100.00;100485.91;6322083;28;20428;-70
2023/08/31 05:57:23;;;;;;;13.38;5.40;;;;;;;12.48;100.00;100486.44;6312606;28;20055;-70
2023/08/31 06:00:24;;;;;;;9.65;5.75;;;;;;;12.44;100.00;100486.66;6312139;28;20460;-70
2023/08/31 06:03:26;;;;;;;12.13;5.50;;;;;;;12.47;100.00;100496.16;6316083;28;20048;-70
2023/08/31 06:06:28;;;;;;;15.50;5.13;;;;;;;12.57;100.00;100485.84;6317716;28;20360;-70
2023/08/31 06:09:29;;;;;;;10.30;5.15;;;;;;;12.56;100.00;100492.06;6316422;28;20444;-70
2023/08/31 06:12:32;;;;;;;17.67;6.72;;;;;;;12.43;100.00;100492.03;6311888;28;20368;-70
2023/08/31 06:15:33;;;;;;;9.80;5.72;;;;;;;12.43;100.00;100487.59;6313073;28;20051;-70
2023/08/31 06:18:35;;;;;;;12.57;5.55;;;;;;;12.50;100.00;100481.94;6312469;28;20044;-70
2023/08/31 06:21:36;;;;;;;10.05;4.80;;;;;;;12.51;100.00;100483.63;6312622;28;20051;-69
2023/08/31 06:24:38;;;;;;;8.95;5.65;;;;;;;12.53;100.00;100479.09;6312405;28;20044;-70
2023/08/31 06:27:40;;;;;;;11.63;5.50;;;;;;;12.60;100.00;100486.50;6325475;28;20063;-70
2023/08/31 06:30:46;;;;;;;14.10;5.85;;;;;;;12.57;100.00;100488.47;6325389;28;20050;-68
2023/08/31 06:33:47;;;;;;;10.45;5.43;;;;;;;12.54;100.00;100494.81;6325293;28;20185;-68
2023/08/31 06:36:49;;;;;;;15.40;6.97;;;;;;;12.50;100.00;100500.38;6322534;28;20360;-70
2023/08/31 06:39:50;;;;;;;10.48;6.38;;;;;;;12.61;100.00;100495.25;6324923;28;20055;-69
2023/08/31 06:42:53;;;;;;;10.82;6.50;;;;;;;12.65;100.00;100494.09;6324660;28;20051;-70
2023/08/31 06:45:54;;;;;;;12.93;7.05;;;;;;;12.66;100.00;100494.00;6321767;28;20357;-69
2023/08/31 06:48:56;;;;;;;12.95;5.70;;;;;;;12.73;100.00;100496.25;6325376;28;20044;-69
2023/08/31 06:51:57;;;;;;;12.68;6.43;;;;;;;12.77;100.00;100488.03;6322529;28;20435;-70
2023/08/31 06:54:59;;;;;;;17.77;8.40;;;;;;;12.83;100.00;100498.16;6324842;28;20348;-69
2023/08/31 06:58:02;;;;;;;9.65;6.55;;;;;;;12.87;100.00;100494.38;6324421;28;20478;-70
2023/08/31 07:01:06;;;;;;;13.63;7.35;;;;;;;12.95;100.00;100499.97;6321661;22;20056;-69
2023/08/31 07:04:08;;;;;;;14.18;8.10;;;;;;;12.94;100.00;100500.94;6273228;28;20046;-69
2023/08/31 07:07:09;;;;;;;15.77;7.30;;;;;;;13.00;100.00;100496.19;6247048;28;20386;-68
2023/08/31 07:10:11;;;;;;;13.18;7.45;;;;;;;13.07;100.00;100500.94;6249807;28;20046;-68
2023/08/31 07:13:13;;;;;;;14.30;7.95;;;;;;;13.10;100.00;100507.81;6250163;28;20053;-68
2023/08/31 07:16:15;;;;;;;22.13;9.25;;;;;;;13.17;100.00;100512.56;6258550;28;20439;-68
2023/08/31 07:19:16;;;;;;;13.95;8.63;;;;;;;13.21;100.00;100507.91;6250170;28;20053;-68
2023/08/31 07:22:18;;;;;;;15.88;8.75;;;;;;;13.21;100.00;100507.91;6252460;28;20057;-69
2023/08/31 07:25:19;;;;;;;19.70;10.63;;;;;;;13.16;100.00;100512.66;6261684;28;20072;-69
2023/08/31 07:28:22;;;;;;;16.83;10.13;;;;;;;13.14;100.00;100517.22;6265951;28;20178;-69
2023/08/31 07:31:23;;;;;;;18.48;9.63;;;;;;;13.12;100.00;100509.38;6262997;28;20046;-69
2023/08/31 07:34:25;;;;;;;17.80;9.88;;;;;;;13.19;100.00;100505.38;6270114;28;20056;-69
2023/08/31 07:37:26;;;;;;;15.98;8.70;;;;;;;13.27;100.00;100517.25;6263834;28;20053;-69
2023/08/31 07:40:28;;;;;;;17.15;7.72;;;;;;;13.27;100.00;100517.25;6271264;28;20054;-68
2023/08/31 07:43:30;;;;;;;18.40;8.90;;;;;;;13.29;100.00;100513.53;6254627;28;20055;-70
2023/08/31 07:46:32;;;;;;;14.85;8.40;;;;;;;13.27;100.00;100512.81;6264233;28;20053;-69
2023/08/31 07:49:33;;;;;;;15.75;7.30;;;;;;;13.31;100.00;100514.31;6264783;28;20057;-68
2023/08/31 07:52:35;;;;;;;15.80;7.93;;;;;;;13.37;100.00;100519.16;6270749;28;20056;-70
2023/08/31 07:55:36;;;;;;;15.43;8.43;;;;;;;13.39;100.00;100524.31;6275370;28;20045;-69
2023/08/31 07:58:39;;;;;;;22.23;9.82;;;;;;;13.38;100.00;100515.56;6252849;28;20053;-70
2023/08/31 08:01:41;;;;;;;13.80;8.20;;;;;;;13.45;100.00;100519.47;6253883;28;20072;-69
2023/08/31 08:04:42;;;;;;;13.48;8.90;;;;;;;13.45;100.00;100524.75;6253992;28;20084;-69
2023/08/31 08:07:43;;;;;;;14.57;9.20;;;;;;;13.48;100.00;100525.47;6253748;28;20046;-69
2023/08/31 08:10:46;;;;;;;18.52;8.60;;;;;;;13.54;100.00;100525.91;6253484;28;20064;-69
2023/08/31 08:13:48;;;;;;;16.00;7.85;;;;;;;13.56;100.00;100523.16;6253325;28;20091;-70
2023/08/31 08:16:50;;;;;;;16.42;7.72;;;;;;;13.61;100.00;100524.53;6253496;28;20053;-69
2023/08/31 08:19:51;;;;;;;10.77;6.65;;;;;;;13.68;100.00;100536.34;6253675;28;20445;-69
2023/08/31 08:22:53;;;;;;;11.77;6.40;;;;;;;13.75;100.00;100530.63;6253755;28;20053;-69
2023/08/31 08:25:54;;;;;;;15.43;7.03;;;;;;;13.67;100.00;100531.16;6261337;28;20048;-69
2023/08/31 08:28:57;;;;;;;11.95;6.15;;;;;;;13.62;100.00;100557.88;6275106;28;20365;-69
2023/08/31 08:31:58;;;;;;;9.60;5.93;;;;;;;13.56;100.00;100541.63;6265140;28;20069;-69
2023/08/31 08:35:00;;;;;;;10.45;5.75;;;;;;;13.58;100.00;100526.53;6252063;28;20056;-70
2023/08/31 08:38:01;;;;;;;11.45;5.65;;;;;;;13.64;100.00;100529.59;6256898;28;20456;-70
2023/08/31 08:41:05;;;;;;;9.07;5.40;;;;;;;13.69;100.00;100524.00;6262615;28;20056;-69
2023/08/31 08:44:09;;;;;;;10.13;5.78;;;;;;;13.65;100.00;100528.63;6266943;28;20041;-69
2023/08/31 08:47:11;;;;;;;9.70;5.15;;;;;;;13.74;100.00;100531.59;6261474;28;20042;-69
2023/08/31 08:50:13;;;;;;;8.30;4.97;;;;;;;13.75;100.00;100525.34;6268369;28;20445;-70
2023/08/31 08:53:15;;;;;;;10.77;4.80;;;;;;;13.78;100.00;100530.44;6263481;28;20049;-69
2023/08/31 08:56:17;;;;;;;6.55;4.30;;;;;;;13.86;100.00;100530.75;6260512;28;20045;-70
2023/08/31 08:59:20;;;;;;;7.72;4.78;;;;;;;13.92;100.00;100533.78;6252895;28;20049;-69
2023/08/31 09:02:22;;;;;;;6.47;4.03;;;;;;;14.05;100.00;100528.47;6268707;28;20445;-70
2023/08/31 09:05:23;;;;;;;9.68;4.00;;;;;;;14.17;100.00;100532.91;6269878;28;20350;-70
2023/08/31 09:08:28;;;;;;;7.25;4.07;;;;;;;14.29;100.00;100540.88;6252571;28;20360;-72
2023/08/31 09:11:30;;;;;;;4.95;2.72;;;;;;;14.33;100.00;100532.63;6252293;28;20055;-70
2023/08/31 09:14:33;;;;;;;4.47;3.20;;;;;;;14.30;100.00;100542.56;6261341;28;20052;-70
2023/08/31 09:17:43;;;;;;;7.78;3.30;;;;;;;14.27;100.00;100532.22;6265076;28;20060;-69
2023/08/31 09:20:48;;;;;;;9.45;3.22;;;;;;;14.29;100.00;100539.09;6265114;28;20073;-70
2023/08/31 09:23:56;;;;;;;9.75;3.38;;;;;;;14.39;100.00;100526.88;6266534;28;20457;-71
2023/08/31 09:26:58;;;;;;;4.93;3.35;;;;;;;14.63;100.00;100532.22;6273896;28;20049;-71
2023/08/31 09:30:03;;;;;;;5.10;3.03;;;;;;;14.76;100.00;100526.88;6276467;28;20452;-70
2023/08/31 09:33:05;;;;;;;5.50;3.15;;;;;;;14.85;100.00;100546.50;6261637;28;20327;-70
2023/08/31 09:36:08;;;;;;;5.18;3.00;;;;;;;14.94;100.00;100529.91;6263642;28;20053;-72
2023/08/31 09:39:11;;;;;;;3.55;2.55;;;;;;;14.97;100.00;100522.59;6275427;28;20048;-70
2023/08/31 09:42:12;;;;;;;5.38;2.88;;;;;;;15.02;100.00;100534.66;6268394;28;20052;-70
2023/08/31 09:45:17;;;;;;;5.45;2.72;;;;;;;15.03;100.00;100526.59;6258200;28;20076;-70
2023/08/31 09:48:20;;;;;;;3.08;2.25;;;;;;;15.07;100.00;100519.25;6266290;28;20048;-70
2023/08/31 09:51:24;;;;;;;4.03;1.85;;;;;;;15.18;100.00;100533.38;6261572;28;20060;-71
2023/08/31 09:54:27;;;;;;;4.57;1.83;;;;;;;15.24;100.00;100526.78;6226921;28;20136;-76
2023/08/31 09:57:28;;;;;;;5.70;2.55;;;;;;;15.17;100.00;100520.25;6241444;28;20049;-76
2023/08/31 10:00:32;;;;;;;8.23;2.80;;;;;;;15.16;100.00;100537.09;6252148;28;20049;-77
2023/08/31 10:03:34;;;;;;;4.63;2.45;;;;;;;15.14;100.00;100531.09;6264823;28;20057;-74
2023/08/31 10:06:36;;;;;;;3.50;2.17;;;;;;;15.27;100.00;100533.66;6250933;28;20050;-74
2023/08/31 10:09:38;;;;;;;3.33;2.22;;;;;;;15.53;100.00;100534.28;6251035;28;20049;-74
2023/08/31 10:12:42;;;;;;;3.78;2.33;;;;;;;15.52;100.00;100528.13;6251165;28;20056;-73
2023/08/31 10:15:46;;;;;;;2.72;2.15;;;;;;;15.45;100.00;100540.19;6250557;28;20058;-74
2023/08/31 10:18:49;;;;;;;5.45;2.50;;;;;;;15.29;100.00;100542.31;6250984;28;20053;-74
2023/08/31 10:21:50;;;;;;;2.65;2.35;;;;;;;15.17;100.00;100538.78;6250674;28;20477;-73
2023/08/31 10:24:58;;;;;;;3.70;2.25;;;;;;;15.16;100.00;100537.09;6250887;28;20046;-75
2023/08/31 10:28:00;;;;;;;5.65;2.58;;;;;;;15.11;100.00;100528.66;6250636;28;20346;-74
2023/08/31 10:31:04;;;;;;;4.72;2.70;;;;;;;15.12;100.00;100547.06;6249632;28;20057;-74
2023/08/31 10:34:09;;;;;;;6.20;2.55;;;;;;;15.11;100.00;100545.38;6257836;28;20045;-72
2023/08/31 10:37:21;;;;;;;4.75;2.47;;;;;;;15.31;100.00;100541.25;6266634;28;20178;-72
2023/08/31 10:40:23;;;;;;;4.82;1.95;;;;;;;15.51;100.00;100542.34;6275381;28;20460;-72
2023/08/31 10:43:25;;;;;;;4.72;2.28;;;;;;;15.67;100.00;100540.25;6275140;28;20060;-74
2023/08/31 10:46:29;;;;;;;3.50;2.33;;;;;;;15.78;100.00;100542.03;6275008;28;20049;-71
2023/08/31 10:49:32;;;;;;;2.78;1.88;;;;;;;15.83;100.00;100534.56;6274922;28;20627;-71
2023/08/31 10:52:45;;;;;;;1.95;1.58;;;;;;;16.14;100.00;100543.59;6275075;28;20352;-71
2023/08/31 10:55:53;;;;;;;2.30;1.77;;;;;;;16.18;100.00;100533.59;6274165;28;20045;-71
2023/08/31 10:58:59;;;;;;;3.70;1.85;;;;;;;16.29;100.00;100538.84;6275033;28;20052;-71
2023/08/31 11:02:03;;;;;;;4.95;1.50;;;;;;;16.21;100.00;100535.97;6274504;28;20049;-71
2023/08/31 11:05:09;;;;;;;3.85;1.30;;;;;;;16.34;100.00;100515.44;6270432;28;20054;-72
2023/08/31 11:08:11;;;;;;;1.95;1.42;;;;;;;16.62;100.00;100516.72;6250191;28;20056;-71
2023/08/31 11:11:12;;;;;;;2.60;1.30;;;;;;;16.71;100.00;100523.03;6250245;28;20053;-72
2023/08/31 11:14:13;;;;;;;1.40;1.25;;;;;;;16.81;100.00;100533.81;6249744;28;20060;-77
2023/08/31 11:17:17;;;;;;;2.58;1.25;;;;;;;16.83;100.00;100543.31;6250116;28;20050;-75
2023/08/31 11:20:20;;;;;;;1.13;0.70;;;;;;;16.94;100.00;100556.53;6244255;28;20050;-73
2023/08/31 11:23:21;;;;;;;0.80;0.60;;;;;;;16.87;100.00;100551.88;6238292;28;20342;-71
2023/08/31 11:26:22;;;;;;;1.02;0.70;;;;;;;17.01;100.00;100558.69;6236403;28;20048;-74
2023/08/31 11:29:24;;;;;;;2.45;0.90;;;;;;;17.03;100.00;100559.38;6238018;28;20045;-75
2023/08/31 11:32:27;;;;;;;2.10;0.77;;;;;;;17.04;100.00;100555.78;6236988;28;20053;-71
2023/08/31 11:35:33;;;;;;;2.75;1.10;;;;;;;17.35;100.00;100564.63;6246347;28;20049;-74
2023/08/31 11:38:35;;;;;;;4.18;1.27;;;;;;;17.61;100.00;100554.47;6266405;28;20053;-74
2023/08/31 11:41:41;;;;;;;4.38;1.50;;;;;;;17.85;100.00;100557.69;6267415;28;20079;-72
2023/08/31 11:44:42;;;;;;;1.23;1.10;;;;;;;18.15;100.00;100561.31;6256182;28;20056;-75
2023/08/31 11:47:46;;;;;;;5.10;1.50;;;;;;;18.31;100.00;100544.84;6254836;28;20046;-75
2023/08/31 11:50:48;;;;;;;2.40;1.35;;;;;;;18.26;100.00;100542.59;6249381;28;20045;-72
2023/08/31 11:53:50;;;;;;;2.65;1.40;;;;;;;18.42;100.00;100547.38;6249651;28;20349;-72
2023/08/31 11:56:52;;;;;;;1.65;1.13;;;;;;;17.84;100.00;100549.84;6265297;28;20045;-73
2023/08/31 11:59:53;;;;;;;2.95;0.95;;;;;;;18.04;100.00;100551.63;6274119;28;20067;-71
2023/08/31 12:02:58;;;;;;;2.85;0.90;;;;;;;18.04;100.00;100558.75;6274542;28;20057;-71
2023/08/31 12:06:01;;;;;;;5.82;1.10;;;;;;;18.07;100.00;100546.00;6274087;28;20114;-72
2023/08/31 12:09:04;;;;;;;4.20;1.20;;;;;;;18.32;100.00;100536.72;6277719;28;20198;-77
2023/08/31 12:12:08;;;;;;;1.73;0.93;;;;;;;18.54;100.00;100538.28;6278921;28;20500;-73
2023/08/31 12:15:11;;;;;;;0.93;0.47;;;;;;;18.72;100.00;100549.13;6278476;28;20048;-73
2023/08/31 12:18:15;;;;;;;1.15;0.75;;;;;;;18.78;100.00;100551.22;6278663;28;20056;-71
2023/08/31 12:21:20;;;;;;;1.55;0.70;;;;;;;18.47;100.00;100563.75;6278432;28;20051;-75
2023/08/31 12:24:22;;;;;;;1.10;0.40;;;;;;;18.24;100.00;100568.47;6272518;28;20434;-74
2023/08/31 12:27:24;;;;;;;1.15;0.50;;;;;;;17.86;100.00;100578.00;6258136;28;20165;-75
2023/08/31 12:30:26;;;;;;;1.45;0.88;;;;;;;18.08;100.00;100579.63;6269516;28;20349;-73
2023/08/31 12:33:28;;;;;;;2.33;1.10;;;;;;;17.92;100.00;100582.75;6271006;28;20057;-75
2023/08/31 12:36:30;;;;;;;1.52;1.00;;;;;;;17.72;100.00;100583.63;6273602;28;20049;-73
2023/08/31 12:39:32;;;;;;;3.03;1.42;;;;;;;17.77;100.00;100584.09;6270936;28;20060;-74
2023/08/31 12:42:33;;;;;;;3.40;1.00;;;;;;;17.53;100.00;100576.34;6278069;28;20445;-74
2023/08/31 12:45:34;;;;;;;2.05;0.93;;;;;;;17.39;100.00;100582.84;6277768;28;20055;-74
2023/08/31 12:48:37;;;;;;;2.42;0.85;;;;;;;17.17;100.00;100581.19;6277915;28;20056;-77
2023/08/31 12:51:39;;;;;;;1.02;0.60;;;;;;;17.04;100.00;100580.50;6277941;28;20051;-76
2023/08/31 12:54:40;;;;;;;2.05;0.90;;;;;;;16.87;100.00;100591.69;6277456;28;20372;-76
2023/08/31 12:57:42;;;;;;;3.00;0.88;;;;;;;16.79;100.00;100602.06;6264971;28;20053;-77
2023/08/31 13:03:48;;;;;;;2.15;0.82;;;;;;;16.38;100.00;100617.69;6276286;28;20056;-71
2023/08/31 13:06:50;;;;;;;1.08;0.93;;;;;;;16.17;100.00;100620.25;6275888;28;20041;-74
2023/08/31 13:09:51;;;;;;;1.55;0.90;;;;;;;15.94;100.00;100643.25;6268021;28;20056;-74
2023/08/31 13:12:52;;;;;;;4.45;1.30;;;;;;;15.86;100.00;100637.69;6260251;28;20042;-75
2023/08/31 13:15:54;;;;;;;2.00;0.82;;;;;;;16.40;100.00;100638.78;6252113;28;20049;-73
2023/08/31 13:18:57;;;;;;;0.80;0.65;;;;;;;16.82;100.00;100642.47;6233711;28;20045;-73
2023/08/31 13:21:58;;;;;;;0.68;0.60;;;;;;;17.13;100.00;100645.28;6265006;28;20151;-73
2023/08/31 13:24:59;;;;;;;1.08;0.60;;;;;;;17.61;100.00;100648.31;6265170;28;20045;-73
2023/08/31 13:28:01;;;;;;;3.88;0.47;;;;;;;17.64;100.00;100637.44;6248989;28;20060;-71
2023/08/31 13:31:03;;;;;;;0.40;0.30;;;;;;;17.37;100.00;100640.59;6252375;28;20049;-77
2023/08/31 13:34:06;;;;;;;0.88;0.40;;;;;;;17.56;100.00;100642.53;6252134;28;20060;-82
2023/08/31 13:37:08;;;;;;;2.83;0.60;;;;;;;17.74;100.00;100650.81;6252054;28;20050;-71
2023/08/31 13:40:10;;;;;;;0.40;0.40;;;;;;;17.34;100.00;100640.84;6257549;28;20044;-72
2023/08/31 13:43:11;;;;;;;0.60;0.38;;;;;;;17.43;100.00;100642.72;6256977;28;20041;-73
2023/08/31 13:46:13;;;;;;;1.88;0.50;;;;;;;17.07;100.00;100646.63;6263196;28;20357;-74
2023/08/31 13:49:16;;;;;;;1.77;0.50;;;;;;;16.84;100.00;100648.50;6261748;28;20056;-73
2023/08/31 13:52:18;;;;;;;1.13;0.40;;;;;;;16.83;100.00;100641.50;6267017;28;20057;-74
2023/08/31 13:55:20;;;;;;;1.85;1.13;;;;;;;16.68;100.00;100643.56;6272723;28;20349;-72
2023/08/31 13:58:21;;;;;;;2.80;0.40;;;;;;;16.49;100.00;100646.03;6267979;28;20060;-74
2023/08/31 14:01:23;;;;;;;1.13;0.55;;;;;;;16.48;100.00;100646.97;6275927;28;20520;-75